sensor_id;sensor_type;location;lat;lon;timestamp;P1;durP1;ratioP1;P2;durP2;ratioP2
75851;SDS011;64500;52.632;20.656;2023-04-06T00:00:48;36.70;;;15.60;;
75851;SDS011;64500;52.632;20.656;2023-04-06T00:03:17;35.10;;;16.00;;
75851;SDS011;64500;52.632;20.656;2023-04-06T00:05:44;35.40;;;15.20;;
75851;SDS011;64500;52.632;20.656;2023-04-06T00:08:11;32.00;;;14.00;;
75851;SDS011;64500;52.632;20.656;2023-04-06T00:10:38;35.90;;;15.30;;
75851;SDS011;64500;52.632;20.656;2023-04-06T00:13:05;31.80;;;14.70;;
75851;SDS011;64500;52.632;20.656;2023-04-06T00:15:33;33.60;;;15.10;;
75851;SDS011;64500;52.632;20.656;2023-04-06T00:18:01;34.40;;;15.70;;
75851;SDS011;64500;52.632;20.656;2023-04-06T00:20:29;35.80;;;16.90;;
75851;SDS011;64500;52.632;20.656;2023-04-06T00:22:56;35.40;;;16.70;;
75851;SDS011;64500;52.632;20.656;2023-04-06T00:25:22;33.60;;;16.40;;
75851;SDS011;64500;52.632;20.656;2023-04-06T00:27:49;32.50;;;16.00;;
75851;SDS011;64500;52.632;20.656;2023-04-06T00:30:16;40.50;;;17.60;;
75851;SDS011;64500;52.632;20.656;2023-04-06T00:32:43;36.00;;;16.60;;
75851;SDS011;64500;52.632;20.656;2023-04-06T00:35:10;33.50;;;15.40;;
75851;SDS011;64500;52.632;20.656;2023-04-06T00:37:37;37.10;;;16.20;;
75851;SDS011;64500;52.632;20.656;2023-04-06T00:40:04;34.60;;;16.20;;
75851;SDS011;64500;52.632;20.656;2023-04-06T00:42:31;33.10;;;15.90;;
75851;SDS011;64500;52.632;20.656;2023-04-06T00:44:59;31.90;;;16.00;;
75851;SDS011;64500;52.632;20.656;2023-04-06T00:47:27;35.60;;;15.70;;
75851;SDS011;64500;52.632;20.656;2023-04-06T00:49:55;33.20;;;15.50;;
75851;SDS011;64500;52.632;20.656;2023-04-06T00:52:21;28.70;;;13.10;;
75851;SDS011;64500;52.632;20.656;2023-04-06T00:54:49;35.20;;;16.70;;
75851;SDS011;64500;52.632;20.656;2023-04-06T00:57:16;33.30;;;15.30;;
75851;SDS011;64500;52.632;20.656;2023-04-06T00:59:44;33.80;;;16.70;;
75851;SDS011;64500;52.632;20.656;2023-04-06T01:02:12;28.50;;;15.70;;
75851;SDS011;64500;52.632;20.656;2023-04-06T01:04:39;32.30;;;15.20;;
75851;SDS011;64500;52.632;20.656;2023-04-06T01:07:06;54.20;;;27.20;;
75851;SDS011;64500;52.632;20.656;2023-04-06T01:09:33;91.90;;;44.40;;
75851;SDS011;64500;52.632;20.656;2023-04-06T01:12:00;86.80;;;42.20;;
75851;SDS011;64500;52.632;20.656;2023-04-06T01:14:27;80.00;;;39.30;;
75851;SDS011;64500;52.632;20.656;2023-04-06T01:16:57;76.60;;;36.50;;
75851;SDS011;64500;52.632;20.656;2023-04-06T01:19:25;34.50;;;17.00;;
75851;SDS011;64500;52.632;20.656;2023-04-06T01:21:54;32.30;;;16.40;;
75851;SDS011;64500;52.632;20.656;2023-04-06T01:24:21;31.60;;;15.40;;
75851;SDS011;64500;52.632;20.656;2023-04-06T01:26:48;36.90;;;17.60;;
75851;SDS011;64500;52.632;20.656;2023-04-06T01:29:15;32.90;;;16.60;;
75851;SDS011;64500;52.632;20.656;2023-04-06T01:31:44;33.00;;;13.90;;
75851;SDS011;64500;52.632;20.656;2023-04-06T01:34:10;31.10;;;15.40;;
75851;SDS011;64500;52.632;20.656;2023-04-06T01:36:37;29.90;;;14.20;;
75851;SDS011;64500;52.632;20.656;2023-04-06T01:39:04;27.60;;;13.40;;
75851;SDS011;64500;52.632;20.656;2023-04-06T01:41:31;26.70;;;13.50;;
75851;SDS011;64500;52.632;20.656;2023-04-06T01:43:58;27.00;;;13.00;;
75851;SDS011;64500;52.632;20.656;2023-04-06T01:46:25;27.70;;;12.90;;
75851;SDS011;64500;52.632;20.656;2023-04-06T01:48:52;28.30;;;12.30;;
75851;SDS011;64500;52.632;20.656;2023-04-06T01:51:19;25.50;;;11.90;;
75851;SDS011;64500;52.632;20.656;2023-04-06T01:53:46;25.50;;;11.20;;
75851;SDS011;64500;52.632;20.656;2023-04-06T01:56:15;25.20;;;12.20;;
75851;SDS011;64500;52.632;20.656;2023-04-06T01:58:41;27.30;;;12.40;;
75851;SDS011;64500;52.632;20.656;2023-04-06T02:01:08;25.30;;;11.30;;
75851;SDS011;64500;52.632;20.656;2023-04-06T02:03:36;23.80;;;11.20;;
75851;SDS011;64500;52.632;20.656;2023-04-06T02:06:02;23.60;;;11.70;;
75851;SDS011;64500;52.632;20.656;2023-04-06T02:08:30;22.90;;;11.50;;
75851;SDS011;64500;52.632;20.656;2023-04-06T02:10:59;24.90;;;12.10;;
75851;SDS011;64500;52.632;20.656;2023-04-06T02:13:26;21.70;;;11.00;;
75851;SDS011;64500;52.632;20.656;2023-04-06T02:15:53;23.70;;;12.00;;
75851;SDS011;64500;52.632;20.656;2023-04-06T02:18:20;23.30;;;10.90;;
75851;SDS011;64500;52.632;20.656;2023-04-06T02:20:47;22.80;;;11.40;;
75851;SDS011;64500;52.632;20.656;2023-04-06T02:23:14;22.70;;;11.00;;
75851;SDS011;64500;52.632;20.656;2023-04-06T02:25:41;21.10;;;10.30;;
75851;SDS011;64500;52.632;20.656;2023-04-06T02:28:08;22.20;;;10.40;;
75851;SDS011;64500;52.632;20.656;2023-04-06T02:30:35;22.10;;;10.40;;
75851;SDS011;64500;52.632;20.656;2023-04-06T02:33:02;18.20;;;8.40;;
75851;SDS011;64500;52.632;20.656;2023-04-06T02:35:29;23.40;;;10.40;;
75851;SDS011;64500;52.632;20.656;2023-04-06T02:37:57;21.30;;;9.40;;
75851;SDS011;64500;52.632;20.656;2023-04-06T02:40:24;19.50;;;9.10;;
75851;SDS011;64500;52.632;20.656;2023-04-06T02:42:51;21.00;;;9.30;;
75851;SDS011;64500;52.632;20.656;2023-04-06T02:45:18;19.40;;;9.40;;
75851;SDS011;64500;52.632;20.656;2023-04-06T02:47:45;18.80;;;9.10;;
75851;SDS011;64500;52.632;20.656;2023-04-06T02:50:12;18.60;;;9.30;;
75851;SDS011;64500;52.632;20.656;2023-04-06T02:52:39;20.20;;;9.10;;
75851;SDS011;64500;52.632;20.656;2023-04-06T02:55:06;18.80;;;9.00;;
75851;SDS011;64500;52.632;20.656;2023-04-06T02:57:34;17.60;;;7.70;;
75851;SDS011;64500;52.632;20.656;2023-04-06T03:00:01;19.40;;;9.20;;
75851;SDS011;64500;52.632;20.656;2023-04-06T03:02:28;15.80;;;7.50;;
75851;SDS011;64500;52.632;20.656;2023-04-06T03:04:55;18.70;;;8.20;;
75851;SDS011;64500;52.632;20.656;2023-04-06T03:07:22;17.00;;;8.30;;
75851;SDS011;64500;52.632;20.656;2023-04-06T03:09:48;19.00;;;8.30;;
75851;SDS011;64500;52.632;20.656;2023-04-06T03:12:16;19.30;;;8.00;;
75851;SDS011;64500;52.632;20.656;2023-04-06T03:14:43;16.40;;;7.80;;
75851;SDS011;64500;52.632;20.656;2023-04-06T03:17:10;16.00;;;7.10;;
75851;SDS011;64500;52.632;20.656;2023-04-06T03:19:37;14.90;;;6.20;;
75851;SDS011;64500;52.632;20.656;2023-04-06T03:22:03;38.70;;;15.80;;
75851;SDS011;64500;52.632;20.656;2023-04-06T03:24:30;136.40;;;50.10;;
75851;SDS011;64500;52.632;20.656;2023-04-06T03:26:57;100.80;;;39.40;;
75851;SDS011;64500;52.632;20.656;2023-04-06T03:29:24;107.50;;;45.00;;
75851;SDS011;64500;52.632;20.656;2023-04-06T03:31:51;238.50;;;98.60;;
75851;SDS011;64500;52.632;20.656;2023-04-06T03:34:17;182.60;;;73.90;;
75851;SDS011;64500;52.632;20.656;2023-04-06T03:36:44;64.60;;;30.00;;
75851;SDS011;64500;52.632;20.656;2023-04-06T03:39:11;49.60;;;26.20;;
75851;SDS011;64500;52.632;20.656;2023-04-06T03:41:38;60.50;;;32.80;;
75851;SDS011;64500;52.632;20.656;2023-04-06T03:44:05;53.00;;;27.80;;
75851;SDS011;64500;52.632;20.656;2023-04-06T03:46:32;121.60;;;62.30;;
75851;SDS011;64500;52.632;20.656;2023-04-06T03:48:59;85.10;;;44.40;;
75851;SDS011;64500;52.632;20.656;2023-04-06T03:51:26;59.90;;;31.60;;
75851;SDS011;64500;52.632;20.656;2023-04-06T03:53:54;38.70;;;21.50;;
75851;SDS011;64500;52.632;20.656;2023-04-06T03:56:21;38.50;;;23.50;;
75851;SDS011;64500;52.632;20.656;2023-04-06T03:58:48;29.90;;;17.20;;
75851;SDS011;64500;52.632;20.656;2023-04-06T04:01:19;21.30;;;10.60;;
75851;SDS011;64500;52.632;20.656;2023-04-06T04:03:46;19.40;;;8.90;;
75851;SDS011;64500;52.632;20.656;2023-04-06T04:06:12;20.90;;;10.50;;
75851;SDS011;64500;52.632;20.656;2023-04-06T04:08:39;17.00;;;8.20;;
75851;SDS011;64500;52.632;20.656;2023-04-06T04:11:06;17.80;;;7.10;;
75851;SDS011;64500;52.632;20.656;2023-04-06T04:13:33;16.30;;;8.20;;
75851;SDS011;64500;52.632;20.656;2023-04-06T04:16:00;16.20;;;7.70;;
75851;SDS011;64500;52.632;20.656;2023-04-06T04:18:29;17.20;;;7.00;;
75851;SDS011;64500;52.632;20.656;2023-04-06T04:20:56;13.70;;;6.30;;
75851;SDS011;64500;52.632;20.656;2023-04-06T04:23:23;13.90;;;6.00;;
75851;SDS011;64500;52.632;20.656;2023-04-06T04:25:50;13.80;;;6.20;;
75851;SDS011;64500;52.632;20.656;2023-04-06T04:28:17;11.90;;;5.70;;
75851;SDS011;64500;52.632;20.656;2023-04-06T04:30:45;11.30;;;5.00;;
75851;SDS011;64500;52.632;20.656;2023-04-06T04:33:12;14.20;;;6.20;;
75851;SDS011;64500;52.632;20.656;2023-04-06T04:35:39;13.20;;;6.30;;
75851;SDS011;64500;52.632;20.656;2023-04-06T04:38:06;14.20;;;5.90;;
75851;SDS011;64500;52.632;20.656;2023-04-06T04:40:33;13.00;;;6.30;;
75851;SDS011;64500;52.632;20.656;2023-04-06T04:43:00;11.40;;;5.30;;
75851;SDS011;64500;52.632;20.656;2023-04-06T04:45:27;12.60;;;5.90;;
75851;SDS011;64500;52.632;20.656;2023-04-06T04:47:54;13.30;;;6.10;;
75851;SDS011;64500;52.632;20.656;2023-04-06T04:50:21;18.40;;;6.70;;
75851;SDS011;64500;52.632;20.656;2023-04-06T04:52:48;10.10;;;4.90;;
75851;SDS011;64500;52.632;20.656;2023-04-06T04:55:15;14.60;;;6.40;;
75851;SDS011;64500;52.632;20.656;2023-04-06T04:57:42;12.70;;;5.80;;
75851;SDS011;64500;52.632;20.656;2023-04-06T05:00:09;12.50;;;5.40;;
75851;SDS011;64500;52.632;20.656;2023-04-06T05:02:36;14.40;;;6.60;;
75851;SDS011;64500;52.632;20.656;2023-04-06T05:05:03;14.20;;;5.70;;
75851;SDS011;64500;52.632;20.656;2023-04-06T05:07:30;12.80;;;6.10;;
75851;SDS011;64500;52.632;20.656;2023-04-06T05:09:57;13.00;;;5.40;;
75851;SDS011;64500;52.632;20.656;2023-04-06T05:12:24;16.00;;;6.90;;
75851;SDS011;64500;52.632;20.656;2023-04-06T05:14:53;13.90;;;6.50;;
75851;SDS011;64500;52.632;20.656;2023-04-06T05:17:20;13.30;;;6.00;;
75851;SDS011;64500;52.632;20.656;2023-04-06T05:19:47;17.10;;;6.70;;
75851;SDS011;64500;52.632;20.656;2023-04-06T05:22:14;14.60;;;5.80;;
75851;SDS011;64500;52.632;20.656;2023-04-06T05:24:43;17.50;;;6.90;;
75851;SDS011;64500;52.632;20.656;2023-04-06T05:27:10;13.00;;;5.90;;
75851;SDS011;64500;52.632;20.656;2023-04-06T05:29:37;15.20;;;6.80;;
75851;SDS011;64500;52.632;20.656;2023-04-06T05:32:04;15.90;;;6.90;;
75851;SDS011;64500;52.632;20.656;2023-04-06T05:34:32;13.90;;;6.20;;
75851;SDS011;64500;52.632;20.656;2023-04-06T05:36:59;13.90;;;6.40;;
75851;SDS011;64500;52.632;20.656;2023-04-06T05:39:26;16.20;;;6.20;;
75851;SDS011;64500;52.632;20.656;2023-04-06T05:41:53;13.40;;;6.50;;
75851;SDS011;64500;52.632;20.656;2023-04-06T05:44:20;16.30;;;6.50;;
75851;SDS011;64500;52.632;20.656;2023-04-06T05:46:49;14.70;;;6.90;;
75851;SDS011;64500;52.632;20.656;2023-04-06T05:49:16;13.90;;;6.40;;
75851;SDS011;64500;52.632;20.656;2023-04-06T05:51:43;14.60;;;6.30;;
75851;SDS011;64500;52.632;20.656;2023-04-06T05:54:09;15.10;;;6.60;;
75851;SDS011;64500;52.632;20.656;2023-04-06T05:56:36;13.40;;;6.00;;
75851;SDS011;64500;52.632;20.656;2023-04-06T05:59:03;13.40;;;6.40;;
75851;SDS011;64500;52.632;20.656;2023-04-06T06:01:30;14.80;;;5.70;;
75851;SDS011;64500;52.632;20.656;2023-04-06T06:03:57;14.00;;;5.50;;
75851;SDS011;64500;52.632;20.656;2023-04-06T06:06:24;13.10;;;5.40;;
75851;SDS011;64500;52.632;20.656;2023-04-06T06:08:51;12.20;;;5.70;;
75851;SDS011;64500;52.632;20.656;2023-04-06T06:11:18;12.40;;;5.90;;
75851;SDS011;64500;52.632;20.656;2023-04-06T06:13:45;11.60;;;4.40;;
75851;SDS011;64500;52.632;20.656;2023-04-06T06:16:12;10.20;;;4.50;;
75851;SDS011;64500;52.632;20.656;2023-04-06T06:18:38;14.00;;;5.30;;
75851;SDS011;64500;52.632;20.656;2023-04-06T06:21:05;12.90;;;4.60;;
75851;SDS011;64500;52.632;20.656;2023-04-06T06:23:34;11.80;;;4.80;;
75851;SDS011;64500;52.632;20.656;2023-04-06T06:26:01;11.00;;;4.70;;
75851;SDS011;64500;52.632;20.656;2023-04-06T06:28:28;12.30;;;4.20;;
75851;SDS011;64500;52.632;20.656;2023-04-06T06:30:55;12.90;;;5.10;;
75851;SDS011;64500;52.632;20.656;2023-04-06T06:33:21;8.30;;;3.80;;
75851;SDS011;64500;52.632;20.656;2023-04-06T06:35:49;9.50;;;4.40;;
75851;SDS011;64500;52.632;20.656;2023-04-06T06:38:17;10.80;;;4.40;;
75851;SDS011;64500;52.632;20.656;2023-04-06T06:40:46;12.00;;;4.50;;
75851;SDS011;64500;52.632;20.656;2023-04-06T06:43:13;10.00;;;5.00;;
75851;SDS011;64500;52.632;20.656;2023-04-06T06:45:41;9.20;;;4.00;;
75851;SDS011;64500;52.632;20.656;2023-04-06T06:48:08;9.90;;;3.90;;
75851;SDS011;64500;52.632;20.656;2023-04-06T06:50:35;9.90;;;4.50;;
75851;SDS011;64500;52.632;20.656;2023-04-06T06:53:02;14.50;;;5.00;;
75851;SDS011;64500;52.632;20.656;2023-04-06T06:55:29;10.70;;;4.50;;
75851;SDS011;64500;52.632;20.656;2023-04-06T06:57:55;8.70;;;3.80;;
75851;SDS011;64500;52.632;20.656;2023-04-06T07:00:22;10.50;;;3.90;;
75851;SDS011;64500;52.632;20.656;2023-04-06T07:02:49;9.00;;;4.00;;
75851;SDS011;64500;52.632;20.656;2023-04-06T07:05:17;8.70;;;4.00;;
75851;SDS011;64500;52.632;20.656;2023-04-06T07:07:44;8.80;;;3.60;;
75851;SDS011;64500;52.632;20.656;2023-04-06T07:10:11;10.00;;;3.00;;
75851;SDS011;64500;52.632;20.656;2023-04-06T07:12:38;9.80;;;3.90;;
75851;SDS011;64500;52.632;20.656;2023-04-06T07:15:05;8.80;;;3.20;;
75851;SDS011;64500;52.632;20.656;2023-04-06T07:17:32;9.90;;;4.00;;
75851;SDS011;64500;52.632;20.656;2023-04-06T07:19:59;8.00;;;2.70;;
75851;SDS011;64500;52.632;20.656;2023-04-06T07:22:26;7.10;;;2.60;;
75851;SDS011;64500;52.632;20.656;2023-04-06T07:24:53;9.30;;;2.90;;
75851;SDS011;64500;52.632;20.656;2023-04-06T07:27:21;7.50;;;3.10;;
75851;SDS011;64500;52.632;20.656;2023-04-06T07:29:48;7.00;;;3.00;;
75851;SDS011;64500;52.632;20.656;2023-04-06T07:32:15;7.60;;;2.80;;
75851;SDS011;64500;52.632;20.656;2023-04-06T07:34:41;8.00;;;2.70;;
75851;SDS011;64500;52.632;20.656;2023-04-06T07:37:08;8.20;;;2.40;;
75851;SDS011;64500;52.632;20.656;2023-04-06T07:39:35;8.80;;;2.90;;
75851;SDS011;64500;52.632;20.656;2023-04-06T07:42:02;7.90;;;3.00;;
75851;SDS011;64500;52.632;20.656;2023-04-06T07:44:29;6.70;;;2.40;;
75851;SDS011;64500;52.632;20.656;2023-04-06T07:46:56;6.90;;;2.80;;
75851;SDS011;64500;52.632;20.656;2023-04-06T07:49:24;9.10;;;3.00;;
75851;SDS011;64500;52.632;20.656;2023-04-06T07:51:51;9.80;;;3.00;;
75851;SDS011;64500;52.632;20.656;2023-04-06T07:54:18;6.90;;;2.20;;
75851;SDS011;64500;52.632;20.656;2023-04-06T07:56:45;6.40;;;2.40;;
75851;SDS011;64500;52.632;20.656;2023-04-06T07:59:11;7.30;;;2.50;;
75851;SDS011;64500;52.632;20.656;2023-04-06T08:01:40;7.20;;;2.60;;
75851;SDS011;64500;52.632;20.656;2023-04-06T08:04:07;7.70;;;2.50;;
75851;SDS011;64500;52.632;20.656;2023-04-06T08:06:34;8.90;;;2.30;;
75851;SDS011;64500;52.632;20.656;2023-04-06T08:09:02;8.20;;;2.80;;
75851;SDS011;64500;52.632;20.656;2023-04-06T08:11:30;6.80;;;2.70;;
75851;SDS011;64500;52.632;20.656;2023-04-06T08:13:56;7.50;;;2.60;;
75851;SDS011;64500;52.632;20.656;2023-04-06T08:16:24;6.90;;;2.30;;
75851;SDS011;64500;52.632;20.656;2023-04-06T08:18:51;6.90;;;2.60;;
75851;SDS011;64500;52.632;20.656;2023-04-06T08:21:18;7.70;;;3.10;;
75851;SDS011;64500;52.632;20.656;2023-04-06T08:23:45;7.70;;;2.80;;
75851;SDS011;64500;52.632;20.656;2023-04-06T08:26:12;7.20;;;2.70;;
75851;SDS011;64500;52.632;20.656;2023-04-06T08:28:39;7.90;;;3.00;;
75851;SDS011;64500;52.632;20.656;2023-04-06T08:31:06;7.50;;;2.80;;
75851;SDS011;64500;52.632;20.656;2023-04-06T08:33:34;8.10;;;3.00;;
75851;SDS011;64500;52.632;20.656;2023-04-06T08:36:09;7.30;;;3.10;;
75851;SDS011;64500;52.632;20.656;2023-04-06T08:38:41;6.40;;;2.60;;
75851;SDS011;64500;52.632;20.656;2023-04-06T08:41:09;8.10;;;2.80;;
75851;SDS011;64500;52.632;20.656;2023-04-06T08:43:42;7.60;;;2.70;;
75851;SDS011;64500;52.632;20.656;2023-04-06T08:46:23;9.40;;;3.60;;
75851;SDS011;64500;52.632;20.656;2023-04-06T08:49:00;7.70;;;3.20;;
75851;SDS011;64500;52.632;20.656;2023-04-06T08:51:28;7.60;;;2.80;;
75851;SDS011;64500;52.632;20.656;2023-04-06T08:53:57;9.50;;;3.60;;
75851;SDS011;64500;52.632;20.656;2023-04-06T08:56:26;8.80;;;3.20;;
75851;SDS011;64500;52.632;20.656;2023-04-06T08:58:55;7.60;;;3.40;;
75851;SDS011;64500;52.632;20.656;2023-04-06T09:01:25;8.40;;;3.40;;
75851;SDS011;64500;52.632;20.656;2023-04-06T09:03:55;8.80;;;3.90;;
75851;SDS011;64500;52.632;20.656;2023-04-06T09:06:26;8.40;;;3.30;;
75851;SDS011;64500;52.632;20.656;2023-04-06T09:08:53;8.70;;;3.60;;
75851;SDS011;64500;52.632;20.656;2023-04-06T09:11:21;6.90;;;2.70;;
75851;SDS011;64500;52.632;20.656;2023-04-06T09:13:50;11.30;;;4.10;;
75851;SDS011;64500;52.632;20.656;2023-04-06T09:16:18;6.90;;;3.00;;
75851;SDS011;64500;52.632;20.656;2023-04-06T09:18:46;13.50;;;4.00;;
75851;SDS011;64500;52.632;20.656;2023-04-06T09:21:16;10.00;;;3.90;;
75851;SDS011;64500;52.632;20.656;2023-04-06T09:23:45;8.60;;;3.30;;
75851;SDS011;64500;52.632;20.656;2023-04-06T09:26:13;6.30;;;2.70;;
75851;SDS011;64500;52.632;20.656;2023-04-06T09:28:42;8.30;;;3.30;;
75851;SDS011;64500;52.632;20.656;2023-04-06T09:31:09;8.30;;;3.40;;
75851;SDS011;64500;52.632;20.656;2023-04-06T09:33:40;10.10;;;3.80;;
75851;SDS011;64500;52.632;20.656;2023-04-06T09:36:10;8.20;;;3.60;;
75851;SDS011;64500;52.632;20.656;2023-04-06T09:38:39;10.30;;;3.30;;
75851;SDS011;64500;52.632;20.656;2023-04-06T09:41:30;8.20;;;3.50;;
75851;SDS011;64500;52.632;20.656;2023-04-06T09:44:08;9.60;;;3.60;;
75851;SDS011;64500;52.632;20.656;2023-04-06T09:46:37;8.30;;;4.10;;
75851;SDS011;64500;52.632;20.656;2023-04-06T09:49:06;10.30;;;3.70;;
75851;SDS011;64500;52.632;20.656;2023-04-06T09:51:38;9.80;;;3.90;;
75851;SDS011;64500;52.632;20.656;2023-04-06T09:54:18;8.60;;;4.10;;
75851;SDS011;64500;52.632;20.656;2023-04-06T09:56:56;9.80;;;4.70;;
75851;SDS011;64500;52.632;20.656;2023-04-06T09:59:40;9.80;;;3.90;;
75851;SDS011;64500;52.632;20.656;2023-04-06T10:02:19;8.70;;;4.00;;
75851;SDS011;64500;52.632;20.656;2023-04-06T10:04:56;9.50;;;4.20;;
75851;SDS011;64500;52.632;20.656;2023-04-06T10:07:57;8.90;;;4.10;;
75851;SDS011;64500;52.632;20.656;2023-04-06T10:10:28;9.30;;;3.80;;
75851;SDS011;64500;52.632;20.656;2023-04-06T10:12:55;8.00;;;4.10;;
75851;SDS011;64500;52.632;20.656;2023-04-06T10:15:23;8.60;;;4.20;;
75851;SDS011;64500;52.632;20.656;2023-04-06T10:17:51;10.50;;;4.70;;
75851;SDS011;64500;52.632;20.656;2023-04-06T10:20:23;9.40;;;3.90;;
75851;SDS011;64500;52.632;20.656;2023-04-06T10:23:05;10.00;;;4.30;;
75851;SDS011;64500;52.632;20.656;2023-04-06T10:25:36;9.10;;;3.60;;
75851;SDS011;64500;52.632;20.656;2023-04-06T10:28:07;9.10;;;3.90;;
75851;SDS011;64500;52.632;20.656;2023-04-06T10:30:41;8.90;;;3.50;;
75851;SDS011;64500;52.632;20.656;2023-04-06T10:33:12;9.10;;;3.80;;
75851;SDS011;64500;52.632;20.656;2023-04-06T10:35:43;9.00;;;3.50;;
75851;SDS011;64500;52.632;20.656;2023-04-06T10:38:11;8.90;;;3.50;;
75851;SDS011;64500;52.632;20.656;2023-04-06T10:40:41;7.30;;;3.10;;
75851;SDS011;64500;52.632;20.656;2023-04-06T10:43:22;8.30;;;3.10;;
75851;SDS011;64500;52.632;20.656;2023-04-06T10:45:56;8.00;;;3.60;;
75851;SDS011;64500;52.632;20.656;2023-04-06T10:48:24;8.00;;;3.00;;
75851;SDS011;64500;52.632;20.656;2023-04-06T10:50:52;8.20;;;4.00;;
75851;SDS011;64500;52.632;20.656;2023-04-06T10:53:23;9.90;;;3.70;;
75851;SDS011;64500;52.632;20.656;2023-04-06T10:55:54;9.50;;;4.20;;
75851;SDS011;64500;52.632;20.656;2023-04-06T10:58:26;11.70;;;3.70;;
75851;SDS011;64500;52.632;20.656;2023-04-06T11:00:54;9.70;;;4.20;;
75851;SDS011;64500;52.632;20.656;2023-04-06T11:03:26;9.90;;;3.60;;
75851;SDS011;64500;52.632;20.656;2023-04-06T11:05:53;11.90;;;4.80;;
75851;SDS011;64500;52.632;20.656;2023-04-06T11:08:33;10.30;;;4.70;;
75851;SDS011;64500;52.632;20.656;2023-04-06T11:11:10;11.20;;;5.20;;
75851;SDS011;64500;52.632;20.656;2023-04-06T11:13:43;12.60;;;5.70;;
75851;SDS011;64500;52.632;20.656;2023-04-06T11:16:15;11.80;;;4.90;;
75851;SDS011;64500;52.632;20.656;2023-04-06T11:18:47;12.00;;;5.10;;
75851;SDS011;64500;52.632;20.656;2023-04-06T11:21:15;12.80;;;5.60;;
75851;SDS011;64500;52.632;20.656;2023-04-06T11:23:42;10.80;;;4.80;;
75851;SDS011;64500;52.632;20.656;2023-04-06T11:26:10;11.70;;;5.40;;
75851;SDS011;64500;52.632;20.656;2023-04-06T11:28:38;10.40;;;5.00;;
75851;SDS011;64500;52.632;20.656;2023-04-06T11:31:07;10.80;;;4.90;;
75851;SDS011;64500;52.632;20.656;2023-04-06T11:33:37;9.10;;;3.90;;
75851;SDS011;64500;52.632;20.656;2023-04-06T11:36:05;9.90;;;4.00;;
75851;SDS011;64500;52.632;20.656;2023-04-06T11:38:33;10.70;;;4.70;;
75851;SDS011;64500;52.632;20.656;2023-04-06T11:41:00;10.10;;;4.70;;
75851;SDS011;64500;52.632;20.656;2023-04-06T11:43:29;10.50;;;4.40;;
75851;SDS011;64500;52.632;20.656;2023-04-06T11:46:01;10.30;;;3.80;;
75851;SDS011;64500;52.632;20.656;2023-04-06T11:48:29;9.90;;;4.10;;
75851;SDS011;64500;52.632;20.656;2023-04-06T11:50:57;11.10;;;4.50;;
75851;SDS011;64500;52.632;20.656;2023-04-06T11:53:28;10.20;;;4.30;;
75851;SDS011;64500;52.632;20.656;2023-04-06T11:55:55;11.40;;;5.00;;
75851;SDS011;64500;52.632;20.656;2023-04-06T11:58:23;9.20;;;3.70;;
75851;SDS011;64500;52.632;20.656;2023-04-06T12:00:50;9.10;;;4.00;;
75851;SDS011;64500;52.632;20.656;2023-04-06T12:03:16;8.20;;;3.60;;
75851;SDS011;64500;52.632;20.656;2023-04-06T12:05:44;9.20;;;4.10;;
75851;SDS011;64500;52.632;20.656;2023-04-06T12:08:11;9.50;;;3.90;;
75851;SDS011;64500;52.632;20.656;2023-04-06T12:10:38;12.60;;;4.60;;
75851;SDS011;64500;52.632;20.656;2023-04-06T12:13:05;10.90;;;4.50;;
75851;SDS011;64500;52.632;20.656;2023-04-06T12:15:32;9.30;;;4.20;;
75851;SDS011;64500;52.632;20.656;2023-04-06T12:17:59;9.30;;;3.80;;
75851;SDS011;64500;52.632;20.656;2023-04-06T12:20:26;6.40;;;2.50;;
75851;SDS011;64500;52.632;20.656;2023-04-06T12:22:53;7.80;;;3.10;;
75851;SDS011;64500;52.632;20.656;2023-04-06T12:25:20;8.90;;;3.60;;
75851;SDS011;64500;52.632;20.656;2023-04-06T12:27:47;7.60;;;2.90;;
75851;SDS011;64500;52.632;20.656;2023-04-06T12:30:14;8.50;;;3.40;;
75851;SDS011;64500;52.632;20.656;2023-04-06T12:32:41;7.80;;;3.00;;
75851;SDS011;64500;52.632;20.656;2023-04-06T12:35:08;9.60;;;3.20;;
75851;SDS011;64500;52.632;20.656;2023-04-06T12:37:37;8.50;;;4.10;;
75851;SDS011;64500;52.632;20.656;2023-04-06T12:40:04;8.20;;;3.40;;
75851;SDS011;64500;52.632;20.656;2023-04-06T12:42:34;9.10;;;3.90;;
75851;SDS011;64500;52.632;20.656;2023-04-06T12:45:01;8.20;;;3.50;;
75851;SDS011;64500;52.632;20.656;2023-04-06T12:47:28;9.20;;;3.80;;
75851;SDS011;64500;52.632;20.656;2023-04-06T12:49:55;7.60;;;3.20;;
75851;SDS011;64500;52.632;20.656;2023-04-06T12:52:23;7.70;;;3.10;;
75851;SDS011;64500;52.632;20.656;2023-04-06T12:54:50;8.70;;;3.40;;
75851;SDS011;64500;52.632;20.656;2023-04-06T12:57:17;10.10;;;3.20;;
75851;SDS011;64500;52.632;20.656;2023-04-06T12:59:45;7.50;;;3.30;;
75851;SDS011;64500;52.632;20.656;2023-04-06T13:02:12;7.20;;;3.20;;
75851;SDS011;64500;52.632;20.656;2023-04-06T13:04:39;8.60;;;3.20;;
75851;SDS011;64500;52.632;20.656;2023-04-06T13:07:06;8.30;;;2.80;;
75851;SDS011;64500;52.632;20.656;2023-04-06T13:09:33;7.80;;;3.00;;
75851;SDS011;64500;52.632;20.656;2023-04-06T13:12:00;7.40;;;2.90;;
75851;SDS011;64500;52.632;20.656;2023-04-06T13:14:27;8.30;;;3.20;;
75851;SDS011;64500;52.632;20.656;2023-04-06T13:16:54;8.60;;;3.10;;
75851;SDS011;64500;52.632;20.656;2023-04-06T13:19:21;8.40;;;3.30;;
75851;SDS011;64500;52.632;20.656;2023-04-06T13:21:49;9.00;;;3.50;;
75851;SDS011;64500;52.632;20.656;2023-04-06T13:24:16;7.70;;;3.00;;
75851;SDS011;64500;52.632;20.656;2023-04-06T13:26:42;8.30;;;3.10;;
75851;SDS011;64500;52.632;20.656;2023-04-06T13:29:09;6.20;;;2.50;;
75851;SDS011;64500;52.632;20.656;2023-04-06T13:31:37;8.50;;;2.80;;
75851;SDS011;64500;52.632;20.656;2023-04-06T13:34:05;5.90;;;2.30;;
75851;SDS011;64500;52.632;20.656;2023-04-06T13:36:32;7.80;;;3.00;;
75851;SDS011;64500;52.632;20.656;2023-04-06T13:38:59;7.50;;;3.10;;
75851;SDS011;64500;52.632;20.656;2023-04-06T13:41:26;7.40;;;2.80;;
75851;SDS011;64500;52.632;20.656;2023-04-06T13:43:53;9.50;;;3.70;;
75851;SDS011;64500;52.632;20.656;2023-04-06T13:46:20;6.90;;;3.00;;
75851;SDS011;64500;52.632;20.656;2023-04-06T13:48:47;8.40;;;3.10;;
75851;SDS011;64500;52.632;20.656;2023-04-06T13:51:14;14.00;;;7.90;;
75851;SDS011;64500;52.632;20.656;2023-04-06T13:53:42;8.70;;;4.00;;
75851;SDS011;64500;52.632;20.656;2023-04-06T13:56:08;9.50;;;4.10;;
75851;SDS011;64500;52.632;20.656;2023-04-06T13:58:36;9.90;;;4.30;;
75851;SDS011;64500;52.632;20.656;2023-04-06T14:01:06;10.70;;;4.10;;
75851;SDS011;64500;52.632;20.656;2023-04-06T14:03:35;22.70;;;11.10;;
75851;SDS011;64500;52.632;20.656;2023-04-06T14:06:12;12.20;;;5.60;;
75851;SDS011;64500;52.632;20.656;2023-04-06T14:08:40;11.50;;;5.50;;
75851;SDS011;64500;52.632;20.656;2023-04-06T14:11:10;8.20;;;3.40;;
75851;SDS011;64500;52.632;20.656;2023-04-06T14:13:38;16.90;;;8.00;;
75851;SDS011;64500;52.632;20.656;2023-04-06T14:16:06;9.90;;;4.00;;
75851;SDS011;64500;52.632;20.656;2023-04-06T14:18:34;11.40;;;5.40;;
75851;SDS011;64500;52.632;20.656;2023-04-06T14:21:00;8.80;;;4.40;;
75851;SDS011;64500;52.632;20.656;2023-04-06T14:23:27;11.80;;;5.40;;
75851;SDS011;64500;52.632;20.656;2023-04-06T14:26:04;20.70;;;12.00;;
75851;SDS011;64500;52.632;20.656;2023-04-06T14:28:32;14.00;;;7.70;;